createdAt,value
2024-02-03T00:00:21.056Z,52.40
2024-02-03T00:01:21.043Z,53.79
2024-02-03T00:02:21.051Z,51.12
2024-02-03T00:03:21.097Z,52.27
2024-02-03T00:04:21.147Z,53.01
2024-02-03T00:05:21.134Z,53.11
2024-02-03T00:06:21.240Z,52.94
2024-02-03T00:07:21.265Z,53.40
2024-02-03T00:08:21.229Z,54.54
2024-02-03T00:09:21.298Z,53.53
2024-02-03T00:10:21.262Z,54.92
2024-02-03T00:11:21.852Z,53.56
2024-02-03T00:12:21.377Z,53.41
2024-02-03T00:13:21.358Z,54.31
2024-02-03T00:14:21.391Z,52.18
2024-02-03T00:15:21.474Z,51.31
2024-02-03T00:16:21.460Z,52.50
2024-02-03T00:17:21.470Z,53.63
2024-02-03T00:18:21.638Z,53.49
2024-02-03T00:19:21.612Z,50.93
2024-02-03T00:20:21.565Z,52.75
2024-02-03T00:21:21.591Z,52.42
2024-02-03T00:22:21.619Z,52.01
2024-02-03T00:23:21.671Z,51.42
2024-02-03T00:24:21.709Z,53.48
2024-02-03T00:25:21.697Z,52.67
2024-02-03T00:26:21.718Z,52.02
2024-02-03T00:27:21.806Z,52.83
2024-02-03T00:28:21.799Z,54.32
2024-02-03T00:29:21.838Z,51.46
2024-02-03T00:30:21.880Z,52.40
2024-02-03T00:31:21.876Z,51.94
2024-02-03T00:32:21.960Z,51.23
2024-02-03T00:33:22.117Z,51.35
2024-02-03T00:34:22.060Z,53.03
2024-02-03T00:35:22.022Z,51.55
2024-02-03T00:36:22.111Z,50.16
2024-02-03T00:37:22.079Z,52.60
2024-02-03T00:38:22.117Z,53.84
2024-02-03T00:39:22.191Z,52.88
2024-02-03T00:40:22.213Z,54.24
2024-02-03T00:41:22.243Z,53.50
2024-02-03T00:42:22.310Z,52.12
2024-02-03T00:43:22.309Z,52.73
2024-02-03T00:44:22.340Z,52.93
2024-02-03T00:45:22.395Z,50.31
2024-02-03T00:46:22.430Z,54.41
2024-02-03T00:47:22.447Z,53.09
2024-02-03T00:48:22.721Z,51.60
2024-02-03T00:49:22.673Z,51.39
2024-02-03T00:50:22.608Z,50.71
2024-02-03T00:51:22.646Z,52.08
2024-02-03T00:52:22.667Z,52.72
2024-02-03T00:53:22.706Z,52.55
2024-02-03T00:54:22.757Z,52.93
2024-02-03T00:55:22.842Z,50.85
2024-02-03T00:56:22.832Z,51.12
2024-02-03T00:57:22.938Z,51.02
2024-02-03T00:58:22.895Z,51.42
2024-02-03T00:59:22.960Z,51.52
2024-02-03T01:00:23.071Z,51.05
2024-02-03T01:01:23.061Z,51.82
2024-02-03T01:02:23.034Z,51.80
2024-02-03T01:03:23.121Z,51.68
2024-02-03T01:04:23.297Z,50.49
2024-02-03T01:05:23.183Z,50.74
2024-02-03T01:06:23.224Z,50.37
2024-02-03T01:07:23.226Z,53.32
2024-02-03T01:08:23.272Z,50.95
2024-02-03T01:09:23.326Z,52.32
2024-02-03T01:10:23.354Z,50.52
2024-02-03T01:11:23.403Z,50.44
2024-02-03T01:12:23.499Z,55.43
2024-02-03T01:13:23.520Z,53.01
2024-02-03T01:14:23.544Z,52.13
2024-02-03T01:15:23.745Z,52.25
2024-02-03T01:16:23.635Z,53.01
2024-02-03T01:17:23.666Z,56.07
2024-02-03T01:18:23.906Z,53.72
2024-02-03T01:19:23.876Z,51.73
2024-02-03T01:20:23.818Z,53.57
2024-02-03T01:21:23.924Z,53.62
2024-02-03T01:22:23.920Z,50.47
2024-02-03T01:23:23.931Z,50.49
2024-02-03T01:24:23.991Z,50.09
2024-02-03T01:25:24.012Z,51.08
2024-02-03T01:26:24.047Z,51.17
2024-02-03T01:27:24.125Z,50.87
2024-02-03T01:28:24.144Z,50.79
2024-02-03T01:29:25.399Z,51.27
2024-02-03T01:30:24.254Z,53.77
2024-02-03T01:31:24.275Z,51.98
2024-02-03T01:32:24.344Z,50.69
2024-02-03T01:33:24.472Z,51.85
2024-02-03T01:34:24.499Z,53.79
2024-02-03T01:35:24.432Z,53.22
2024-02-03T01:36:24.555Z,53.11
2024-02-03T01:37:24.517Z,52.22
2024-02-03T01:38:24.563Z,50.25
2024-02-03T01:39:24.646Z,51.71
2024-02-03T01:40:24.648Z,53.15
2024-02-03T01:41:24.739Z,53.61
2024-02-03T01:42:24.774Z,53.84
2024-02-03T01:43:24.779Z,55.09
2024-02-03T01:44:24.820Z,53.97
2024-02-03T01:45:24.935Z,50.99
2024-02-03T01:46:24.913Z,51.56
2024-02-03T01:47:24.996Z,53.54
2024-02-03T01:48:25.063Z,53.73
2024-02-03T01:49:25.117Z,51.45
2024-02-03T01:50:25.086Z,52.72
2024-02-03T01:51:25.189Z,51.77
2024-02-03T01:52:25.201Z,52.08
2024-02-03T01:53:25.241Z,50.93
2024-02-03T01:54:25.378Z,51.88
2024-02-03T01:55:25.317Z,51.71
2024-02-03T01:56:25.343Z,53.12
2024-02-03T01:57:25.442Z,52.93
2024-02-03T01:58:25.420Z,52.56
2024-02-03T01:59:25.511Z,51.96
2024-02-03T02:00:25.596Z,52.23
2024-02-03T02:01:25.614Z,52.85
2024-02-03T02:02:25.625Z,52.24
2024-02-03T02:03:25.720Z,53.93
2024-02-03T02:04:25.882Z,52.89
2024-02-03T02:05:25.772Z,51.58
2024-02-03T02:06:28.832Z,54.82
2024-02-03T02:07:26.797Z,54.88
2024-02-03T02:08:25.786Z,52.72
2024-02-03T02:09:25.830Z,54.21
2024-02-03T02:10:25.779Z,52.97
2024-02-03T02:11:25.803Z,54.09
2024-02-03T02:12:25.800Z,51.90
2024-02-03T02:13:25.785Z,52.58
2024-02-03T02:14:26.242Z,52.73
2024-02-03T02:15:26.302Z,54.04
2024-02-03T02:16:25.784Z,52.84
2024-02-03T02:17:25.773Z,51.96
2024-02-03T02:18:26.000Z,52.23
2024-02-03T02:19:25.835Z,50.53
2024-02-03T02:20:25.792Z,52.50
2024-02-03T02:21:25.868Z,52.24
2024-02-03T02:22:25.880Z,53.89
2024-02-03T02:23:25.928Z,51.04
2024-02-03T02:24:26.010Z,52.35
2024-02-03T02:25:26.027Z,52.26
2024-02-03T02:26:26.062Z,50.66
2024-02-03T02:27:26.158Z,54.54
2024-02-03T02:28:26.164Z,51.57
2024-02-03T02:29:26.210Z,53.13
2024-02-03T02:30:26.280Z,52.18
2024-02-03T02:31:26.310Z,52.60
2024-02-03T02:32:26.362Z,52.26
2024-02-03T02:33:26.539Z,54.99
2024-02-03T02:34:26.505Z,52.83
2024-02-03T02:35:26.505Z,53.57
2024-02-03T02:36:26.659Z,53.69
2024-02-03T02:37:26.612Z,54.77
2024-02-03T02:38:26.644Z,52.66
2024-02-03T02:39:26.716Z,54.40
2024-02-03T02:40:26.732Z,51.17
2024-02-03T02:41:26.788Z,52.56
2024-02-03T02:42:26.857Z,52.99
2024-02-03T02:43:26.877Z,52.24
2024-02-03T02:44:26.939Z,53.49
2024-02-03T02:45:27.051Z,52.65
2024-02-03T02:46:27.203Z,52.20
2024-02-03T02:47:27.076Z,50.94
2024-02-03T02:48:27.196Z,51.89
2024-02-03T02:49:27.264Z,54.04
2024-02-03T02:50:27.215Z,55.02
2024-02-03T02:51:27.286Z,54.43
2024-02-03T02:52:27.316Z,54.55
2024-02-03T02:53:27.365Z,52.07
2024-02-03T02:54:27.548Z,54.14
2024-02-03T02:55:27.476Z,51.67
2024-02-03T02:56:27.536Z,54.16
2024-02-03T02:57:27.649Z,53.05
2024-02-03T02:58:27.661Z,51.55
2024-02-03T02:59:27.696Z,52.33
2024-02-03T03:00:27.760Z,50.27
2024-02-03T03:01:27.859Z,53.43
2024-02-03T03:02:27.832Z,55.64
2024-02-03T03:03:27.909Z,50.25
2024-02-03T03:04:28.141Z,53.43
2024-02-03T03:05:27.943Z,51.88
2024-02-03T03:06:28.051Z,51.62
2024-02-03T03:07:28.062Z,51.85
2024-02-03T03:08:28.101Z,53.09
2024-02-03T03:09:28.160Z,51.30
2024-02-03T03:10:28.187Z,50.90
2024-02-03T03:11:28.229Z,50.48
2024-02-03T03:12:28.278Z,52.95
2024-02-03T03:13:28.370Z,50.33
2024-02-03T03:14:28.363Z,53.93
2024-02-03T03:15:28.443Z,54.23
2024-02-03T03:16:28.447Z,54.75
2024-02-03T03:17:28.527Z,53.70
2024-02-03T03:18:28.593Z,55.22
2024-02-03T03:19:28.655Z,55.86
2024-02-03T03:20:28.626Z,53.80
2024-02-03T03:21:28.721Z,52.83
2024-02-03T03:22:28.723Z,51.57
2024-02-03T03:23:28.804Z,53.23
2024-02-03T03:24:28.829Z,52.79
2024-02-03T03:25:28.851Z,52.68
2024-02-03T03:26:28.896Z,53.73
2024-02-03T03:27:28.991Z,53.76
2024-02-03T03:28:28.986Z,53.74
2024-02-03T03:29:29.050Z,53.91
2024-02-03T03:30:29.108Z,53.12
2024-02-03T03:31:29.127Z,51.06
2024-02-03T03:32:29.249Z,54.33
2024-02-03T03:33:29.379Z,52.91
2024-02-03T03:34:29.410Z,53.26
2024-02-03T03:35:29.312Z,52.84
2024-02-03T03:36:29.393Z,52.60
2024-02-03T03:37:29.433Z,51.52
2024-02-03T03:38:29.463Z,51.50
2024-02-03T03:39:29.645Z,52.37
2024-02-03T03:40:29.556Z,55.72
2024-02-03T03:41:29.614Z,54.01
2024-02-03T03:42:29.687Z,54.45
2024-02-03T03:43:29.717Z,51.76
2024-02-03T03:44:29.774Z,50.51
2024-02-03T03:45:29.832Z,50.97
2024-02-03T03:46:29.844Z,51.16
2024-02-03T03:47:29.941Z,54.43
2024-02-03T03:48:29.992Z,53.21
2024-02-03T03:49:30.093Z,53.20
2024-02-03T03:50:30.048Z,50.80
2024-02-03T03:51:30.146Z,50.65
2024-02-03T03:52:30.138Z,52.40
2024-02-03T03:53:30.177Z,50.70
2024-02-03T03:54:30.287Z,50.89
2024-02-03T03:55:30.277Z,51.00
2024-02-03T03:56:30.312Z,53.35
2024-02-03T03:57:30.393Z,53.18
2024-02-03T03:58:30.419Z,54.92
2024-02-03T03:59:30.456Z,53.10
2024-02-03T04:00:30.568Z,54.18
2024-02-03T04:01:30.603Z,53.30
2024-02-03T04:02:30.586Z,53.76
2024-02-03T04:03:30.665Z,52.77
2024-02-03T04:04:30.712Z,52.90
2024-02-03T04:05:30.761Z,52.23
2024-02-03T04:06:30.867Z,54.41
2024-02-03T04:07:30.810Z,52.02
2024-02-03T04:08:30.844Z,53.35
2024-02-03T04:09:30.900Z,54.70
2024-02-03T04:10:30.949Z,53.38
2024-02-03T04:11:31.011Z,51.70
2024-02-03T04:12:31.072Z,51.63
2024-02-03T04:13:31.130Z,55.26
2024-02-03T04:14:31.148Z,54.35
2024-02-03T04:15:31.244Z,54.15
2024-02-03T04:16:31.231Z,54.95
2024-02-03T04:17:31.289Z,53.10
2024-02-03T04:18:31.444Z,50.32
2024-02-03T04:19:31.470Z,54.57
2024-02-03T04:20:31.436Z,55.79
2024-02-03T04:21:31.505Z,52.55
2024-02-03T04:22:31.510Z,53.95
2024-02-03T04:23:31.555Z,52.52
2024-02-03T04:24:31.652Z,52.40
2024-02-03T04:25:31.677Z,53.47
2024-02-03T04:26:31.705Z,54.27
2024-02-03T04:27:31.783Z,51.85
2024-02-03T04:28:31.800Z,50.71
2024-02-03T04:29:31.855Z,54.48
2024-02-03T04:30:31.971Z,54.50
2024-02-03T04:31:31.957Z,53.30
2024-02-03T04:32:32.049Z,53.20
2024-02-03T04:33:32.260Z,52.38
2024-02-03T04:34:32.259Z,52.40
2024-02-03T04:35:32.319Z,54.11
2024-02-03T04:36:32.236Z,52.93
2024-02-03T04:37:32.328Z,53.27
2024-02-03T04:38:32.369Z,51.90
2024-02-03T04:39:32.421Z,51.95
2024-02-03T04:40:32.549Z,52.91
2024-02-03T04:41:32.622Z,54.31
2024-02-03T04:42:32.540Z,54.43
2024-02-03T04:43:39.829Z,50.00
2024-02-03T04:44:39.825Z,50.00
2024-02-03T04:45:39.865Z,50.00
2024-02-03T04:46:39.831Z,50.00
2024-02-03T04:47:39.920Z,50.00
2024-02-03T04:48:40.041Z,50.81
2024-02-03T04:49:39.878Z,49.76
2024-02-03T04:50:39.835Z,52.85
2024-02-03T04:51:39.851Z,50.00
2024-02-03T04:52:39.820Z,53.25
2024-02-03T04:53:39.829Z,52.20
2024-02-03T04:54:39.861Z,52.24
2024-02-03T04:55:39.825Z,52.12
2024-02-03T04:56:39.840Z,52.38
2024-02-03T04:57:39.952Z,51.89
2024-02-03T04:58:39.834Z,52.74
2024-02-03T04:59:39.846Z,51.50
2024-02-03T05:00:39.904Z,50.53
2024-02-03T05:01:39.875Z,52.70
2024-02-03T05:02:39.848Z,55.00
2024-02-03T05:03:39.939Z,52.69
2024-02-03T05:04:39.866Z,50.58
2024-02-03T05:05:39.892Z,53.36
2024-02-03T05:06:40.045Z,52.52
2024-02-03T05:07:39.931Z,52.80
2024-02-03T05:08:39.987Z,50.39
2024-02-03T05:09:40.128Z,52.57
2024-02-03T05:10:40.092Z,51.71
2024-02-03T05:11:40.156Z,51.69
2024-02-03T05:12:40.268Z,53.28
2024-02-03T05:13:40.299Z,55.59
2024-02-03T05:14:40.363Z,52.45
2024-02-03T05:15:40.494Z,52.87
2024-02-03T05:16:40.504Z,54.19
2024-02-03T05:17:40.610Z,53.96
2024-02-03T05:18:40.702Z,53.47
2024-02-03T05:19:40.767Z,53.73
2024-02-03T05:20:40.729Z,53.79
2024-02-03T05:21:40.850Z,52.23
2024-02-03T05:22:40.853Z,52.98
2024-02-03T05:23:40.913Z,52.85
2024-02-03T05:24:40.994Z,52.85
2024-02-03T05:25:41.026Z,53.68
2024-02-03T05:26:41.103Z,52.85
2024-02-03T05:27:41.160Z,53.76
2024-02-03T05:28:41.197Z,54.37
2024-02-03T05:29:41.260Z,51.39
2024-02-03T05:30:41.350Z,52.92
2024-02-03T05:31:41.454Z,53.89
2024-02-03T05:32:41.449Z,52.80
2024-02-03T05:33:41.565Z,54.46
2024-02-03T05:34:41.702Z,53.86
2024-02-03T05:35:41.619Z,54.86
2024-02-03T05:36:41.770Z,53.78
2024-02-03T05:37:41.746Z,52.80
2024-02-03T05:38:41.822Z,55.95
2024-02-03T05:39:42.010Z,52.58
2024-02-03T05:40:41.928Z,50.25
2024-02-03T05:41:41.985Z,54.10
2024-02-03T05:42:42.044Z,50.59
2024-02-03T05:43:42.104Z,53.98
2024-02-03T05:44:42.160Z,53.92
2024-02-03T05:45:42.263Z,55.27
2024-02-03T05:46:42.251Z,51.67
2024-02-03T05:47:42.410Z,51.48
2024-02-03T05:48:42.504Z,53.36
2024-02-03T05:49:42.571Z,54.28
2024-02-03T05:50:42.488Z,52.93
2024-02-03T05:51:42.643Z,54.19
2024-02-03T05:52:42.603Z,53.56
2024-02-03T05:53:42.657Z,52.63
2024-02-03T05:54:42.756Z,53.49
2024-02-03T05:55:42.789Z,53.47
2024-02-03T05:56:42.836Z,54.28
2024-02-03T05:57:42.910Z,53.30
2024-02-03T05:58:42.960Z,53.81
2024-02-03T05:59:48.633Z,52.14
2024-02-03T06:00:44.085Z,52.26
2024-02-03T06:01:43.041Z,52.46
2024-02-03T06:02:43.001Z,52.81
2024-02-03T06:03:43.055Z,53.42
2024-02-03T06:04:43.040Z,54.20
2024-02-03T06:05:58.432Z,52.61
2024-02-03T06:06:44.131Z,52.74
2024-02-03T06:07:43.122Z,53.23
2024-02-03T06:08:43.027Z,53.38
2024-02-03T06:09:43.060Z,50.88
2024-02-03T06:10:43.059Z,54.19
2024-02-03T06:11:43.042Z,51.66
2024-02-03T06:12:43.108Z,52.85
2024-02-03T06:13:43.039Z,52.14
2024-02-03T06:14:43.056Z,51.62
2024-02-03T06:15:43.071Z,51.52
2024-02-03T06:16:43.088Z,51.70
2024-02-03T06:17:43.175Z,51.44
2024-02-03T06:18:43.304Z,53.09
2024-02-03T06:19:44.361Z,53.17
2024-02-03T06:20:43.364Z,52.91
2024-02-03T06:21:43.473Z,53.35
2024-02-03T06:22:43.492Z,53.13
2024-02-03T06:23:43.530Z,53.26
2024-02-03T06:24:43.614Z,54.23
2024-02-03T06:25:43.651Z,52.20
2024-02-03T06:26:43.771Z,53.73
2024-02-03T06:27:43.912Z,54.00
2024-02-03T06:28:43.834Z,52.29
2024-02-03T06:29:44.005Z,54.35
2024-02-03T06:30:44.034Z,53.61
2024-02-03T06:31:44.031Z,52.91
2024-02-03T06:32:44.181Z,52.81
2024-02-03T06:33:44.265Z,53.76
2024-02-03T06:34:44.299Z,51.40
2024-02-03T06:35:44.283Z,52.40
2024-02-03T06:36:44.358Z,52.67
2024-02-03T06:37:44.447Z,52.05
2024-02-03T06:38:44.478Z,53.95
2024-02-03T06:39:44.567Z,53.02
2024-02-03T06:40:44.647Z,51.67
2024-02-03T06:41:44.666Z,54.61
2024-02-03T06:42:44.776Z,54.09
2024-02-03T06:43:44.799Z,52.64
2024-02-03T06:44:47.007Z,54.68
2024-02-03T06:45:44.982Z,51.28
2024-02-03T06:46:44.990Z,54.86
2024-02-03T06:47:45.048Z,53.79
2024-02-03T06:48:45.231Z,56.83
2024-02-03T06:49:45.274Z,52.60
2024-02-03T06:50:45.241Z,53.46
2024-02-03T06:51:45.348Z,54.64
2024-02-03T06:52:45.383Z,55.23
2024-02-03T06:53:45.457Z,54.18
2024-02-03T06:54:45.554Z,51.89
2024-02-03T06:55:45.592Z,52.22
2024-02-03T06:56:45.642Z,52.44
2024-02-03T06:57:45.781Z,52.99
2024-02-03T06:58:45.781Z,53.58
2024-02-03T06:59:45.845Z,53.06
2024-02-03T07:00:45.944Z,54.62
2024-02-03T07:01:46.029Z,53.28
2024-02-03T07:02:46.053Z,53.87
2024-02-03T07:03:46.157Z,52.17
2024-02-03T07:04:46.220Z,53.28
2024-02-03T07:05:46.310Z,55.01
2024-02-03T07:06:46.474Z,54.16
2024-02-03T07:07:46.394Z,51.23
2024-02-03T07:08:48.269Z,54.11
2024-02-03T07:09:46.460Z,55.12
2024-02-03T07:10:46.455Z,53.08
2024-02-03T07:11:56.767Z,52.09
2024-02-03T07:12:47.524Z,52.28
2024-02-03T07:13:46.491Z,52.70
2024-02-03T07:14:46.473Z,52.54
2024-02-03T07:15:46.492Z,53.06
2024-02-03T07:16:46.472Z,54.88
2024-02-03T07:17:46.519Z,55.03
2024-02-03T07:18:46.627Z,58.01
2024-02-03T07:19:46.568Z,54.33
2024-02-03T07:20:46.519Z,51.90
2024-02-03T07:21:46.512Z,52.97
2024-02-03T07:22:46.580Z,54.80
2024-02-03T07:23:46.630Z,54.54
2024-02-03T07:24:46.771Z,53.11
2024-02-03T07:25:46.779Z,54.42
2024-02-03T07:26:46.835Z,54.35
2024-02-03T07:27:46.990Z,53.10
2024-02-03T07:28:46.931Z,53.52
2024-02-03T07:29:47.001Z,54.09
2024-02-03T07:30:47.083Z,52.89
2024-02-03T07:31:47.129Z,54.12
2024-02-03T07:32:47.194Z,54.68
2024-02-03T07:33:47.316Z,54.20
2024-02-03T07:34:47.492Z,55.85
2024-02-03T07:35:47.481Z,53.82
2024-02-03T07:36:47.474Z,54.23
2024-02-03T07:37:47.495Z,53.64
2024-02-03T07:38:47.543Z,54.43
2024-02-03T07:39:47.689Z,53.49
2024-02-03T07:40:47.666Z,54.27
2024-02-03T07:41:47.724Z,54.20
2024-02-03T07:42:47.844Z,53.51
2024-02-03T07:43:47.858Z,52.12
2024-02-03T07:44:47.915Z,54.67
2024-02-03T07:45:48.004Z,52.62
2024-02-03T07:46:48.016Z,54.58
2024-02-03T07:47:48.147Z,51.01
2024-02-03T07:48:48.267Z,52.48
2024-02-03T07:49:48.302Z,53.51
2024-02-03T07:50:48.183Z,50.68
2024-02-03T07:51:48.310Z,52.49
2024-02-03T07:52:49.019Z,52.15
2024-02-03T07:53:48.348Z,54.41
2024-02-03T07:54:48.384Z,54.02
2024-02-03T07:55:48.372Z,51.48
2024-02-03T07:56:48.406Z,52.55
2024-02-03T07:57:51.178Z,51.31
2024-02-03T07:58:48.437Z,53.73
2024-02-03T07:59:48.434Z,53.15
2024-02-03T08:00:48.484Z,53.66
2024-02-03T08:01:48.531Z,53.47
2024-02-03T08:02:48.448Z,52.14
2024-02-03T08:03:48.549Z,53.04
2024-02-03T08:04:48.492Z,54.68
2024-02-03T08:05:48.496Z,52.98
2024-02-03T08:06:48.556Z,53.10
2024-02-03T08:07:48.480Z,52.81
2024-02-03T08:08:48.499Z,53.89
2024-02-03T08:09:48.501Z,54.22
2024-02-03T08:10:48.444Z,52.01
2024-02-03T08:11:48.472Z,51.32
2024-02-03T08:12:48.527Z,56.50
2024-02-03T08:13:48.536Z,53.62
2024-02-03T08:14:48.470Z,52.15
2024-02-03T08:15:48.573Z,51.82
2024-02-03T08:16:48.500Z,52.75
2024-02-03T08:17:48.517Z,53.80
2024-02-03T08:18:48.534Z,51.82
2024-02-03T08:19:48.531Z,50.81
2024-02-03T08:20:48.472Z,53.03
2024-02-03T08:21:48.550Z,53.66
2024-02-03T08:22:48.468Z,53.28
2024-02-03T08:23:48.467Z,52.92
2024-02-03T08:24:48.490Z,55.03
2024-02-03T08:25:48.467Z,53.83
2024-02-03T08:26:48.484Z,52.97
2024-02-03T08:27:48.493Z,53.64
2024-02-03T08:28:48.479Z,52.42
2024-02-03T08:29:48.482Z,52.91
2024-02-03T08:30:48.588Z,53.92
2024-02-03T08:31:48.540Z,52.01
2024-02-03T08:32:48.643Z,53.28
2024-02-03T08:33:48.580Z,53.88
2024-02-03T08:35:48.664Z,53.63
2024-02-03T08:36:48.596Z,53.79
2024-02-03T08:37:48.539Z,52.89
2024-02-03T08:38:48.493Z,54.41
2024-02-03T08:39:48.573Z,54.11
2024-02-03T08:40:48.476Z,55.34
2024-02-03T08:41:48.500Z,56.36
2024-02-03T08:42:48.546Z,52.50
2024-02-03T08:43:48.483Z,53.11
2024-02-03T08:44:48.500Z,53.17
2024-02-03T08:45:48.591Z,54.62
2024-02-03T08:46:48.488Z,53.97
2024-02-03T08:47:48.607Z,51.77
2024-02-03T08:48:48.575Z,52.78
2024-02-03T08:49:48.592Z,52.86
2024-02-03T08:50:48.499Z,52.97
2024-02-03T08:51:48.596Z,56.24
2024-02-03T08:52:48.512Z,52.92
2024-02-03T08:53:48.530Z,53.63
2024-02-03T08:54:48.581Z,52.46
2024-02-03T08:55:48.503Z,53.04
2024-02-03T08:56:48.557Z,53.04
2024-02-03T08:57:48.517Z,53.34
2024-02-03T08:58:48.510Z,54.96
2024-02-03T08:59:48.534Z,54.50
2024-02-03T09:00:48.552Z,52.72
2024-02-03T09:01:48.564Z,54.18
2024-02-03T09:02:48.543Z,53.81
2024-02-03T09:03:48.892Z,53.53
2024-02-03T09:04:48.589Z,54.81
2024-02-03T09:05:48.586Z,54.44
2024-02-03T09:06:48.520Z,55.00
2024-02-03T09:07:48.593Z,56.82
2024-02-03T09:08:48.530Z,56.07
2024-02-03T09:09:48.619Z,59.14
2024-02-03T09:10:48.520Z,60.48
2024-02-03T09:11:48.522Z,60.00
2024-02-03T09:12:48.610Z,61.98
2024-02-03T09:13:48.526Z,62.15
2024-02-03T09:14:48.534Z,63.72
2024-02-03T09:15:48.533Z,64.99
2024-02-03T09:16:48.538Z,65.17
2024-02-03T09:17:48.599Z,66.25
2024-02-03T09:18:48.662Z,66.82
2024-02-03T09:19:48.715Z,65.35
2024-02-03T09:20:48.574Z,67.93
2024-02-03T09:21:48.565Z,66.67
2024-02-03T09:22:48.559Z,65.82
2024-02-03T09:23:48.544Z,67.78
2024-02-03T09:24:48.648Z,68.05
2024-02-03T09:25:48.549Z,68.21
2024-02-03T09:26:48.555Z,69.36
2024-02-03T09:27:48.653Z,68.04
2024-02-03T09:28:48.557Z,68.42
2024-02-03T09:29:48.581Z,68.42
2024-02-03T09:30:48.567Z,69.11
2024-02-03T09:31:48.603Z,69.37
2024-02-03T09:32:48.640Z,68.23
2024-02-03T09:33:48.712Z,67.18
2024-02-03T09:34:48.666Z,67.32
2024-02-03T09:35:48.592Z,65.88
2024-02-03T09:37:51.797Z,66.57
2024-02-03T09:38:48.643Z,66.68
2024-02-03T09:39:48.756Z,67.09
2024-02-03T09:40:48.662Z,67.40
2024-02-03T09:41:48.645Z,68.40
2024-02-03T09:42:48.685Z,68.69
2024-02-03T09:43:50.331Z,70.14
2024-02-03T09:44:48.645Z,71.81
2024-02-03T09:45:48.683Z,72.69
2024-02-03T09:46:48.642Z,71.88
2024-02-03T09:47:48.739Z,71.22
2024-02-03T09:48:48.787Z,70.74
2024-02-03T09:49:48.736Z,73.30
2024-02-03T09:50:48.658Z,70.75
2024-02-03T09:51:48.739Z,71.88
2024-02-03T09:52:48.663Z,72.62
2024-02-03T09:53:48.687Z,71.43
2024-02-03T09:54:48.802Z,71.45
2024-02-03T09:55:48.694Z,72.43
2024-02-03T09:56:48.668Z,72.89
2024-02-03T09:57:48.944Z,72.47
2024-02-03T09:58:48.699Z,71.86
2024-02-03T09:59:48.671Z,73.91
2024-02-03T10:00:48.775Z,74.12
2024-02-03T10:01:48.668Z,73.93
2024-02-03T10:02:48.680Z,73.49
2024-02-03T10:03:48.697Z,72.46
2024-02-03T10:04:48.701Z,73.70
2024-02-03T10:05:48.746Z,71.91
2024-02-03T10:06:48.880Z,70.56
2024-02-03T10:07:48.715Z,71.95
2024-02-03T10:08:48.744Z,71.45
2024-02-03T10:11:48.841Z,73.22
2024-02-03T10:12:48.809Z,73.24
2024-02-03T10:13:48.790Z,74.11
2024-02-03T10:14:48.792Z,72.20
2024-02-03T10:15:48.913Z,73.81
2024-02-03T10:16:48.789Z,74.23
2024-02-03T10:17:48.831Z,72.33
2024-02-03T10:18:48.947Z,72.12
2024-02-03T10:19:48.846Z,73.78
2024-02-03T10:20:48.805Z,72.23
2024-02-03T10:21:48.828Z,73.63
2024-02-03T10:22:48.823Z,71.90
2024-02-03T10:23:48.809Z,74.12
2024-02-03T10:24:48.862Z,74.11
2024-02-03T10:25:48.816Z,74.91
2024-02-03T10:26:48.801Z,71.46
2024-02-03T10:27:48.876Z,72.79
2024-02-03T10:28:48.818Z,74.96
2024-02-03T10:29:48.816Z,74.38
2024-02-03T10:30:48.922Z,75.12
2024-02-03T10:31:48.868Z,74.66
2024-02-03T10:32:48.919Z,74.63
2024-02-03T10:33:48.972Z,76.50
2024-02-03T10:34:48.840Z,75.33
2024-02-03T10:35:48.837Z,74.46
2024-02-03T10:36:50.526Z,77.34
2024-02-03T10:37:48.823Z,77.45
2024-02-03T10:38:48.846Z,77.46
2024-02-03T10:39:48.966Z,77.74
2024-02-03T10:40:48.834Z,77.48
2024-02-03T10:41:48.825Z,77.98
2024-02-03T10:42:48.942Z,76.73
2024-02-03T10:43:48.916Z,76.76
2024-02-03T10:44:48.832Z,74.35
2024-02-03T10:45:49.602Z,76.02
2024-02-03T10:46:48.848Z,74.66
2024-02-03T10:47:48.952Z,76.44
2024-02-03T10:48:49.049Z,75.53
2024-02-03T10:49:49.046Z,70.26
2024-02-03T10:50:48.850Z,72.66
2024-02-03T10:51:48.937Z,77.99
2024-02-03T10:52:48.898Z,73.70
2024-02-03T10:53:48.971Z,76.08
2024-02-03T10:54:49.089Z,75.25
2024-02-03T10:55:49.048Z,81.95
2024-02-03T10:56:49.096Z,72.49
2024-02-03T10:57:49.348Z,80.27
2024-02-03T10:58:49.187Z,81.99
2024-02-03T10:59:49.218Z,80.21
2024-02-03T11:00:49.342Z,79.02
2024-02-03T11:01:49.315Z,76.72
2024-02-03T11:02:49.360Z,80.64
2024-02-03T11:03:49.494Z,82.98
2024-02-03T11:04:49.439Z,80.01
2024-02-03T11:05:49.524Z,78.71
2024-02-03T11:06:49.711Z,81.46
2024-02-03T11:07:49.574Z,77.13
2024-02-03T11:08:49.589Z,81.15
2024-02-03T11:09:49.677Z,78.81
2024-02-03T11:10:49.700Z,81.99
2024-02-03T11:11:49.703Z,82.31
2024-02-03T11:12:49.741Z,79.76
2024-02-03T11:13:49.740Z,85.00
2024-02-03T11:14:49.793Z,80.88
2024-02-03T11:15:49.826Z,84.38
2024-02-03T11:16:49.817Z,82.04
2024-02-03T11:17:49.918Z,83.42
2024-02-03T11:18:49.967Z,84.09
2024-02-03T11:19:50.261Z,85.23
2024-02-03T11:20:49.974Z,85.57
2024-02-03T11:21:50.135Z,86.71
2024-02-03T11:22:50.109Z,85.21
2024-02-03T11:23:50.155Z,86.32
2024-02-03T11:24:50.227Z,84.22
2024-02-03T11:25:50.283Z,83.16
2024-02-03T11:26:50.333Z,82.41
2024-02-03T11:27:50.480Z,84.16
2024-02-03T11:28:50.453Z,84.93
2024-02-03T11:29:50.501Z,82.76
2024-02-03T11:30:50.639Z,82.34
2024-02-03T11:31:50.711Z,82.17
2024-02-03T11:32:50.644Z,80.43
2024-02-03T11:33:50.732Z,79.91
2024-02-03T11:34:50.754Z,78.94
2024-02-03T11:35:50.689Z,79.93
2024-02-03T11:36:50.762Z,79.97
2024-02-03T11:37:50.718Z,78.70
2024-02-03T11:38:50.719Z,79.90
2024-02-03T11:39:50.829Z,79.89
2024-02-03T11:40:50.704Z,78.93
2024-02-03T11:41:50.729Z,77.32
2024-02-03T11:42:50.791Z,78.76
2024-02-03T11:43:50.714Z,77.80
2024-02-03T11:44:50.725Z,78.06
2024-02-03T11:45:50.834Z,77.77
2024-02-03T11:46:50.784Z,77.89
2024-02-03T11:47:50.782Z,78.62
2024-02-03T11:48:50.921Z,77.17
2024-02-03T11:49:50.903Z,78.00
2024-02-03T11:50:50.794Z,75.47
2024-02-03T11:51:50.891Z,76.55
2024-02-03T11:52:50.815Z,77.18
2024-02-03T11:53:50.798Z,77.84
2024-02-03T11:54:50.851Z,77.30
2024-02-03T11:55:50.818Z,78.89
2024-02-03T11:56:50.830Z,79.08
2024-02-03T11:57:50.875Z,77.87
2024-02-03T11:58:50.897Z,77.68
2024-02-03T11:59:50.866Z,77.39
2024-02-03T12:00:51.003Z,77.86
2024-02-03T12:01:50.883Z,76.91
2024-02-03T12:02:50.888Z,75.82
2024-02-03T12:03:50.934Z,78.07
2024-02-03T12:04:50.948Z,79.16
2024-02-03T12:05:50.985Z,77.85
2024-02-03T12:06:50.970Z,78.02
2024-02-03T12:07:50.991Z,77.87
2024-02-03T12:08:50.967Z,77.68
2024-02-03T12:09:50.993Z,78.77
2024-02-03T12:10:50.999Z,77.56
2024-02-03T12:11:50.999Z,76.51
2024-02-03T12:12:51.062Z,77.60
2024-02-03T12:13:51.033Z,76.59
2024-02-03T12:14:51.057Z,80.70
2024-02-03T12:15:51.132Z,75.97
2024-02-03T12:16:51.108Z,78.81
2024-02-03T12:17:51.241Z,77.50
2024-02-03T12:18:51.264Z,75.81
2024-02-03T12:19:51.334Z,77.01
2024-02-03T12:20:51.170Z,76.87
2024-02-03T12:21:51.255Z,78.48
2024-02-03T12:22:51.241Z,77.51
2024-02-03T12:23:51.251Z,78.98
2024-02-03T12:24:51.384Z,78.39
2024-02-03T12:25:51.311Z,76.32
2024-02-03T12:26:51.355Z,77.39
2024-02-03T12:27:51.482Z,77.36
2024-02-03T12:28:51.495Z,76.51
2024-02-03T12:29:51.432Z,75.00
2024-02-03T12:30:51.545Z,79.30
2024-02-03T12:31:51.539Z,77.16
2024-02-03T12:32:51.584Z,80.18
2024-02-03T12:33:51.652Z,77.54
2024-02-03T12:34:51.765Z,79.19
2024-02-03T12:35:51.657Z,79.35
2024-02-03T12:36:51.727Z,77.33
2024-02-03T12:37:51.754Z,78.21
2024-02-03T12:38:51.765Z,77.96
2024-02-03T12:39:51.817Z,78.10
2024-02-03T12:40:51.848Z,77.23
2024-02-03T12:41:51.886Z,78.46
2024-02-03T12:42:51.944Z,77.40
2024-02-03T12:43:51.932Z,78.63
2024-02-03T12:44:51.987Z,76.81
2024-02-03T12:45:52.053Z,75.39
2024-02-03T12:46:52.026Z,78.83
2024-02-03T12:47:52.050Z,79.28
2024-02-03T12:48:52.322Z,78.22
2024-02-03T12:49:52.276Z,78.80
2024-02-03T12:50:52.148Z,76.50
2024-02-03T12:51:52.280Z,76.36
2024-02-03T12:52:52.244Z,79.49
2024-02-03T12:53:52.270Z,77.40
2024-02-03T12:54:52.378Z,76.88
2024-02-03T12:55:52.333Z,77.50
2024-02-03T12:56:52.375Z,77.46